Terminal Aerodrome Forecast
Issued by NWS Memphis, TN

Home | Current Version | Previous Version | Text Only | Print | Product List | Glossary On
Versions: 1 2 3 4 5 6 7 8 9 10 11 12 13 14 15 16 17 18 19 20 21 22 23 24 25 26 27 28 29 30 31 32
000
FTUS44 KMEG 190647 AAA
TAFMEM
TAF AMD
KMEM 190647Z 1907/2006 05006KT P6SM VCSH BKN008 OVC015
     FM191200 13007KT 5SM -SHRA BR OVC007
      TEMPO 1914/1918 4SM SHRA BR BKN004
     FM191900 17007KT P6SM -SHRA SCT012 OVC035
     FM200000 22007KT P6SM SCT040 BKN120=

USA.gov is the U.S. government's official web portal to all federal, state and local government web resources and services.